sensor_id;sensor_type;location;lat;lon;timestamp;P1;durP1;ratioP1;P2;durP2;ratioP2
27412;SDS011;14871;52.702;5.230;2023-04-06T00:01:07;12.55;;;8.65;;
27412;SDS011;14871;52.702;5.230;2023-04-06T00:03:33;12.05;;;8.98;;
27412;SDS011;14871;52.702;5.230;2023-04-06T00:05:59;15.48;;;8.40;;
27412;SDS011;14871;52.702;5.230;2023-04-06T00:08:26;11.95;;;8.88;;
27412;SDS011;14871;52.702;5.230;2023-04-06T00:10:52;12.48;;;8.82;;
27412;SDS011;14871;52.702;5.230;2023-04-06T00:13:17;11.90;;;8.30;;
27412;SDS011;14871;52.702;5.230;2023-04-06T00:15:43;13.27;;;8.52;;
27412;SDS011;14871;52.702;5.230;2023-04-06T00:18:09;16.10;;;8.68;;
27412;SDS011;14871;52.702;5.230;2023-04-06T00:20:35;11.02;;;8.30;;
27412;SDS011;14871;52.702;5.230;2023-04-06T00:23:01;12.50;;;8.18;;
27412;SDS011;14871;52.702;5.230;2023-04-06T00:25:27;10.05;;;8.15;;
27412;SDS011;14871;52.702;5.230;2023-04-06T00:27:52;12.57;;;9.23;;
27412;SDS011;14871;52.702;5.230;2023-04-06T00:30:18;11.55;;;8.32;;
27412;SDS011;14871;52.702;5.230;2023-04-06T00:32:44;10.23;;;7.85;;
27412;SDS011;14871;52.702;5.230;2023-04-06T00:35:10;12.73;;;9.05;;
27412;SDS011;14871;52.702;5.230;2023-04-06T00:37:36;13.93;;;9.65;;
27412;SDS011;14871;52.702;5.230;2023-04-06T00:40:01;11.07;;;8.07;;
27412;SDS011;14871;52.702;5.230;2023-04-06T00:42:27;15.25;;;8.75;;
27412;SDS011;14871;52.702;5.230;2023-04-06T00:44:53;11.48;;;7.95;;
27412;SDS011;14871;52.702;5.230;2023-04-06T00:47:24;12.80;;;8.05;;
27412;SDS011;14871;52.702;5.230;2023-04-06T00:49:50;13.93;;;8.88;;
27412;SDS011;14871;52.702;5.230;2023-04-06T00:52:17;11.57;;;8.38;;
27412;SDS011;14871;52.702;5.230;2023-04-06T00:54:43;13.75;;;8.77;;
27412;SDS011;14871;52.702;5.230;2023-04-06T00:57:10;11.93;;;9.07;;
27412;SDS011;14871;52.702;5.230;2023-04-06T00:59:37;13.40;;;8.88;;
27412;SDS011;14871;52.702;5.230;2023-04-06T01:02:03;11.18;;;7.88;;
27412;SDS011;14871;52.702;5.230;2023-04-06T01:04:29;12.00;;;7.93;;
27412;SDS011;14871;52.702;5.230;2023-04-06T01:06:55;12.50;;;8.85;;
27412;SDS011;14871;52.702;5.230;2023-04-06T01:09:20;13.25;;;9.25;;
27412;SDS011;14871;52.702;5.230;2023-04-06T01:11:46;12.20;;;8.77;;
27412;SDS011;14871;52.702;5.230;2023-04-06T01:14:12;12.15;;;9.15;;
27412;SDS011;14871;52.702;5.230;2023-04-06T01:16:38;12.93;;;8.95;;
27412;SDS011;14871;52.702;5.230;2023-04-06T01:19:11;11.43;;;9.32;;
27412;SDS011;14871;52.702;5.230;2023-04-06T01:21:37;11.93;;;8.02;;
27412;SDS011;14871;52.702;5.230;2023-04-06T01:24:03;14.38;;;9.05;;
27412;SDS011;14871;52.702;5.230;2023-04-06T01:26:30;11.80;;;8.57;;
27412;SDS011;14871;52.702;5.230;2023-04-06T01:28:56;12.48;;;9.43;;
27412;SDS011;14871;52.702;5.230;2023-04-06T01:31:22;13.30;;;9.52;;
27412;SDS011;14871;52.702;5.230;2023-04-06T01:33:48;13.18;;;8.80;;
27412;SDS011;14871;52.702;5.230;2023-04-06T01:36:14;15.30;;;9.80;;
27412;SDS011;14871;52.702;5.230;2023-04-06T01:38:40;14.90;;;9.20;;
27412;SDS011;14871;52.702;5.230;2023-04-06T01:41:06;13.57;;;8.93;;
27412;SDS011;14871;52.702;5.230;2023-04-06T01:43:32;14.10;;;9.32;;
27412;SDS011;14871;52.702;5.230;2023-04-06T01:45:58;13.95;;;9.18;;
27412;SDS011;14871;52.702;5.230;2023-04-06T01:48:25;14.80;;;9.18;;
27412;SDS011;14871;52.702;5.230;2023-04-06T01:50:52;14.20;;;9.18;;
27412;SDS011;14871;52.702;5.230;2023-04-06T01:53:18;15.25;;;8.90;;
27412;SDS011;14871;52.702;5.230;2023-04-06T01:55:44;12.60;;;8.68;;
27412;SDS011;14871;52.702;5.230;2023-04-06T01:58:10;12.80;;;9.05;;
27412;SDS011;14871;52.702;5.230;2023-04-06T02:00:36;11.13;;;8.60;;
27412;SDS011;14871;52.702;5.230;2023-04-06T02:03:02;15.13;;;9.57;;
27412;SDS011;14871;52.702;5.230;2023-04-06T02:05:28;12.43;;;8.50;;
27412;SDS011;14871;52.702;5.230;2023-04-06T02:07:55;14.90;;;9.43;;
27412;SDS011;14871;52.702;5.230;2023-04-06T02:10:21;13.98;;;8.95;;
27412;SDS011;14871;52.702;5.230;2023-04-06T02:12:47;12.10;;;8.85;;
27412;SDS011;14871;52.702;5.230;2023-04-06T02:15:13;14.60;;;9.73;;
27412;SDS011;14871;52.702;5.230;2023-04-06T02:17:40;14.00;;;9.25;;
27412;SDS011;14871;52.702;5.230;2023-04-06T02:20:06;11.75;;;8.38;;
27412;SDS011;14871;52.702;5.230;2023-04-06T02:22:32;13.85;;;9.68;;
27412;SDS011;14871;52.702;5.230;2023-04-06T02:24:59;15.27;;;9.30;;
27412;SDS011;14871;52.702;5.230;2023-04-06T02:27:25;14.85;;;9.63;;
27412;SDS011;14871;52.702;5.230;2023-04-06T02:29:51;14.65;;;9.50;;
27412;SDS011;14871;52.702;5.230;2023-04-06T02:32:16;15.50;;;10.10;;
27412;SDS011;14871;52.702;5.230;2023-04-06T02:34:42;15.35;;;10.13;;
27412;SDS011;14871;52.702;5.230;2023-04-06T02:37:08;11.80;;;9.02;;
27412;SDS011;14871;52.702;5.230;2023-04-06T02:39:34;12.13;;;8.75;;
27412;SDS011;14871;52.702;5.230;2023-04-06T02:42:00;14.48;;;9.23;;
27412;SDS011;14871;52.702;5.230;2023-04-06T02:44:26;13.52;;;8.55;;
27412;SDS011;14871;52.702;5.230;2023-04-06T02:46:52;13.00;;;8.85;;
27412;SDS011;14871;52.702;5.230;2023-04-06T02:49:17;10.68;;;8.60;;
27412;SDS011;14871;52.702;5.230;2023-04-06T02:51:43;13.82;;;9.05;;
27412;SDS011;14871;52.702;5.230;2023-04-06T02:54:09;12.75;;;9.05;;
27412;SDS011;14871;52.702;5.230;2023-04-06T02:56:35;12.50;;;8.60;;
27412;SDS011;14871;52.702;5.230;2023-04-06T02:59:00;13.15;;;9.43;;
27412;SDS011;14871;52.702;5.230;2023-04-06T03:01:26;13.38;;;8.27;;
27412;SDS011;14871;52.702;5.230;2023-04-06T03:03:52;13.50;;;8.07;;
27412;SDS011;14871;52.702;5.230;2023-04-06T03:06:18;13.48;;;8.93;;
27412;SDS011;14871;52.702;5.230;2023-04-06T03:08:43;11.73;;;8.95;;
27412;SDS011;14871;52.702;5.230;2023-04-06T03:11:09;13.65;;;8.23;;
27412;SDS011;14871;52.702;5.230;2023-04-06T03:13:36;11.32;;;8.70;;
27412;SDS011;14871;52.702;5.230;2023-04-06T03:16:04;11.63;;;8.18;;
27412;SDS011;14871;52.702;5.230;2023-04-06T03:18:31;10.85;;;8.50;;
27412;SDS011;14871;52.702;5.230;2023-04-06T03:20:57;14.00;;;8.52;;
27412;SDS011;14871;52.702;5.230;2023-04-06T03:23:25;13.43;;;8.48;;
27412;SDS011;14871;52.702;5.230;2023-04-06T03:25:51;9.38;;;8.30;;
27412;SDS011;14871;52.702;5.230;2023-04-06T03:28:17;11.23;;;8.43;;
27412;SDS011;14871;52.702;5.230;2023-04-06T03:30:43;10.13;;;8.50;;
27412;SDS011;14871;52.702;5.230;2023-04-06T03:33:09;11.43;;;8.55;;
27412;SDS011;14871;52.702;5.230;2023-04-06T03:35:35;11.18;;;8.32;;
27412;SDS011;14871;52.702;5.230;2023-04-06T03:38:02;11.82;;;8.35;;
27412;SDS011;14871;52.702;5.230;2023-04-06T03:40:28;12.75;;;8.68;;
27412;SDS011;14871;52.702;5.230;2023-04-06T03:42:55;11.18;;;8.07;;
27412;SDS011;14871;52.702;5.230;2023-04-06T03:45:21;11.65;;;8.55;;
27412;SDS011;14871;52.702;5.230;2023-04-06T03:47:47;13.75;;;9.23;;
27412;SDS011;14871;52.702;5.230;2023-04-06T03:50:12;13.55;;;9.10;;
27412;SDS011;14871;52.702;5.230;2023-04-06T03:52:38;13.82;;;9.23;;
27412;SDS011;14871;52.702;5.230;2023-04-06T03:55:04;12.70;;;8.88;;
27412;SDS011;14871;52.702;5.230;2023-04-06T03:57:31;12.98;;;9.13;;
27412;SDS011;14871;52.702;5.230;2023-04-06T03:59:57;11.75;;;8.50;;
27412;SDS011;14871;52.702;5.230;2023-04-06T04:02:22;10.63;;;8.93;;
27412;SDS011;14871;52.702;5.230;2023-04-06T04:04:48;11.82;;;9.07;;
27412;SDS011;14871;52.702;5.230;2023-04-06T04:07:15;13.30;;;9.73;;
27412;SDS011;14871;52.702;5.230;2023-04-06T04:09:40;10.82;;;8.82;;
27412;SDS011;14871;52.702;5.230;2023-04-06T04:12:06;13.48;;;8.68;;
27412;SDS011;14871;52.702;5.230;2023-04-06T04:14:32;12.38;;;9.13;;
27412;SDS011;14871;52.702;5.230;2023-04-06T04:16:58;12.10;;;8.75;;
27412;SDS011;14871;52.702;5.230;2023-04-06T04:19:24;16.02;;;9.40;;
27412;SDS011;14871;52.702;5.230;2023-04-06T04:21:50;15.70;;;9.77;;
27412;SDS011;14871;52.702;5.230;2023-04-06T04:24:15;14.15;;;9.75;;
27412;SDS011;14871;52.702;5.230;2023-04-06T04:26:41;14.57;;;9.50;;
27412;SDS011;14871;52.702;5.230;2023-04-06T04:29:07;12.82;;;9.07;;
27412;SDS011;14871;52.702;5.230;2023-04-06T04:31:33;12.35;;;9.32;;
27412;SDS011;14871;52.702;5.230;2023-04-06T04:33:59;15.63;;;9.95;;
27412;SDS011;14871;52.702;5.230;2023-04-06T04:36:26;15.30;;;10.25;;
27412;SDS011;14871;52.702;5.230;2023-04-06T04:38:52;16.35;;;10.25;;
27412;SDS011;14871;52.702;5.230;2023-04-06T04:41:18;16.30;;;10.48;;
27412;SDS011;14871;52.702;5.230;2023-04-06T04:43:44;13.57;;;10.27;;
27412;SDS011;14871;52.702;5.230;2023-04-06T04:46:10;15.82;;;11.15;;
27412;SDS011;14871;52.702;5.230;2023-04-06T04:48:36;15.73;;;10.73;;
27412;SDS011;14871;52.702;5.230;2023-04-06T04:51:03;14.25;;;10.23;;
27412;SDS011;14871;52.702;5.230;2023-04-06T04:53:31;19.98;;;11.27;;
27412;SDS011;14871;52.702;5.230;2023-04-06T04:55:57;16.02;;;11.00;;
27412;SDS011;14871;52.702;5.230;2023-04-06T04:58:23;13.93;;;11.10;;
27412;SDS011;14871;52.702;5.230;2023-04-06T05:00:49;16.80;;;11.13;;
27412;SDS011;14871;52.702;5.230;2023-04-06T05:03:19;16.35;;;11.75;;
27412;SDS011;14871;52.702;5.230;2023-04-06T05:05:48;18.02;;;10.18;;
27412;SDS011;14871;52.702;5.230;2023-04-06T05:08:13;15.00;;;10.75;;
27412;SDS011;14871;52.702;5.230;2023-04-06T05:10:40;16.40;;;12.00;;
27412;SDS011;14871;52.702;5.230;2023-04-06T05:13:06;18.15;;;11.05;;
27412;SDS011;14871;52.702;5.230;2023-04-06T05:15:32;18.75;;;11.15;;
27412;SDS011;14871;52.702;5.230;2023-04-06T05:18:08;16.90;;;11.02;;
27412;SDS011;14871;52.702;5.230;2023-04-06T05:20:34;16.02;;;10.85;;
27412;SDS011;14871;52.702;5.230;2023-04-06T05:23:00;17.17;;;11.10;;
27412;SDS011;14871;52.702;5.230;2023-04-06T05:25:27;15.88;;;10.07;;
27412;SDS011;14871;52.702;5.230;2023-04-06T05:27:53;19.85;;;11.27;;
27412;SDS011;14871;52.702;5.230;2023-04-06T05:30:19;19.65;;;11.82;;
27412;SDS011;14871;52.702;5.230;2023-04-06T05:32:46;15.82;;;11.25;;
27412;SDS011;14871;52.702;5.230;2023-04-06T05:35:13;15.23;;;11.77;;
27412;SDS011;14871;52.702;5.230;2023-04-06T05:37:39;15.02;;;10.55;;
27412;SDS011;14871;52.702;5.230;2023-04-06T05:40:05;16.50;;;10.88;;
27412;SDS011;14871;52.702;5.230;2023-04-06T05:42:38;19.25;;;12.57;;
27412;SDS011;14871;52.702;5.230;2023-04-06T05:45:05;17.38;;;12.63;;
27412;SDS011;14871;52.702;5.230;2023-04-06T05:47:31;16.92;;;12.18;;
27412;SDS011;14871;52.702;5.230;2023-04-06T05:49:57;15.15;;;11.60;;
27412;SDS011;14871;52.702;5.230;2023-04-06T05:52:23;16.15;;;11.93;;
27412;SDS011;14871;52.702;5.230;2023-04-06T05:54:49;19.33;;;11.85;;
27412;SDS011;14871;52.702;5.230;2023-04-06T05:57:15;18.98;;;13.25;;
27412;SDS011;14871;52.702;5.230;2023-04-06T05:59:44;17.83;;;12.50;;
27412;SDS011;14871;52.702;5.230;2023-04-06T06:02:10;20.30;;;12.85;;
27412;SDS011;14871;52.702;5.230;2023-04-06T06:04:36;20.27;;;12.85;;
27412;SDS011;14871;52.702;5.230;2023-04-06T06:07:02;15.70;;;12.13;;
27412;SDS011;14871;52.702;5.230;2023-04-06T06:09:28;21.25;;;13.43;;
27412;SDS011;14871;52.702;5.230;2023-04-06T06:11:54;17.98;;;12.95;;
27412;SDS011;14871;52.702;5.230;2023-04-06T06:14:20;20.80;;;13.57;;
27412;SDS011;14871;52.702;5.230;2023-04-06T06:16:47;20.75;;;14.32;;
27412;SDS011;14871;52.702;5.230;2023-04-06T06:19:13;20.88;;;13.77;;
27412;SDS011;14871;52.702;5.230;2023-04-06T06:21:39;24.17;;;15.10;;
27412;SDS011;14871;52.702;5.230;2023-04-06T06:24:05;22.23;;;14.45;;
27412;SDS011;14871;52.702;5.230;2023-04-06T06:26:31;24.23;;;14.90;;
27412;SDS011;14871;52.702;5.230;2023-04-06T06:28:57;22.60;;;15.25;;
27412;SDS011;14871;52.702;5.230;2023-04-06T06:31:23;23.27;;;15.00;;
27412;SDS011;14871;52.702;5.230;2023-04-06T06:33:49;24.23;;;15.10;;
27412;SDS011;14871;52.702;5.230;2023-04-06T06:36:19;21.95;;;15.48;;
27412;SDS011;14871;52.702;5.230;2023-04-06T06:38:45;22.75;;;14.85;;
27412;SDS011;14871;52.702;5.230;2023-04-06T06:41:11;24.25;;;15.02;;
27412;SDS011;14871;52.702;5.230;2023-04-06T06:43:37;24.10;;;15.38;;
27412;SDS011;14871;52.702;5.230;2023-04-06T06:46:03;23.33;;;16.30;;
27412;SDS011;14871;52.702;5.230;2023-04-06T06:48:29;25.80;;;16.65;;
27412;SDS011;14871;52.702;5.230;2023-04-06T06:50:55;23.92;;;16.75;;
27412;SDS011;14871;52.702;5.230;2023-04-06T06:53:22;22.88;;;16.55;;
27412;SDS011;14871;52.702;5.230;2023-04-06T06:55:49;25.52;;;17.15;;
27412;SDS011;14871;52.702;5.230;2023-04-06T06:58:14;25.02;;;17.15;;
27412;SDS011;14871;52.702;5.230;2023-04-06T07:00:42;24.75;;;16.88;;
27412;SDS011;14871;52.702;5.230;2023-04-06T07:03:09;22.00;;;16.20;;
27412;SDS011;14871;52.702;5.230;2023-04-06T07:05:34;26.88;;;18.73;;
27412;SDS011;14871;52.702;5.230;2023-04-06T07:08:01;23.90;;;16.60;;
27412;SDS011;14871;52.702;5.230;2023-04-06T07:10:26;26.70;;;18.95;;
27412;SDS011;14871;52.702;5.230;2023-04-06T07:12:52;26.80;;;18.00;;
27412;SDS011;14871;52.702;5.230;2023-04-06T07:15:18;28.50;;;17.00;;
27412;SDS011;14871;52.702;5.230;2023-04-06T07:17:44;24.15;;;18.02;;
27412;SDS011;14871;52.702;5.230;2023-04-06T07:20:11;26.92;;;17.60;;
27412;SDS011;14871;52.702;5.230;2023-04-06T07:22:38;25.75;;;18.55;;
27412;SDS011;14871;52.702;5.230;2023-04-06T07:25:04;24.40;;;17.35;;
27412;SDS011;14871;52.702;5.230;2023-04-06T07:27:31;28.35;;;19.63;;
27412;SDS011;14871;52.702;5.230;2023-04-06T07:29:57;27.33;;;18.45;;
27412;SDS011;14871;52.702;5.230;2023-04-06T07:32:23;27.35;;;18.75;;
27412;SDS011;14871;52.702;5.230;2023-04-06T07:34:49;31.08;;;19.10;;
27412;SDS011;14871;52.702;5.230;2023-04-06T07:37:15;26.80;;;17.80;;
27412;SDS011;14871;52.702;5.230;2023-04-06T07:39:41;31.23;;;19.92;;
27412;SDS011;14871;52.702;5.230;2023-04-06T07:42:06;30.05;;;18.58;;
27412;SDS011;14871;52.702;5.230;2023-04-06T07:44:32;31.95;;;19.30;;
27412;SDS011;14871;52.702;5.230;2023-04-06T07:46:58;29.02;;;19.02;;
27412;SDS011;14871;52.702;5.230;2023-04-06T07:49:23;27.95;;;19.40;;
27412;SDS011;14871;52.702;5.230;2023-04-06T07:51:49;26.42;;;19.65;;
27412;SDS011;14871;52.702;5.230;2023-04-06T07:54:15;25.65;;;19.10;;
27412;SDS011;14871;52.702;5.230;2023-04-06T07:56:40;31.98;;;20.33;;
27412;SDS011;14871;52.702;5.230;2023-04-06T07:59:06;28.23;;;20.55;;
27412;SDS011;14871;52.702;5.230;2023-04-06T08:01:33;30.92;;;21.17;;
27412;SDS011;14871;52.702;5.230;2023-04-06T08:03:58;32.35;;;21.00;;
27412;SDS011;14871;52.702;5.230;2023-04-06T08:06:27;30.75;;;21.23;;
27412;SDS011;14871;52.702;5.230;2023-04-06T08:08:53;28.45;;;20.88;;
27412;SDS011;14871;52.702;5.230;2023-04-06T08:11:19;31.38;;;22.10;;
27412;SDS011;14871;52.702;5.230;2023-04-06T08:13:45;30.98;;;22.33;;
27412;SDS011;14871;52.702;5.230;2023-04-06T08:16:11;31.15;;;21.00;;
27412;SDS011;14871;52.702;5.230;2023-04-06T08:18:37;28.90;;;20.88;;
27412;SDS011;14871;52.702;5.230;2023-04-06T08:21:02;31.83;;;20.45;;
27412;SDS011;14871;52.702;5.230;2023-04-06T08:23:28;35.60;;;22.50;;
27412;SDS011;14871;52.702;5.230;2023-04-06T08:25:54;33.85;;;22.65;;
27412;SDS011;14871;52.702;5.230;2023-04-06T08:28:20;35.58;;;23.05;;
27412;SDS011;14871;52.702;5.230;2023-04-06T08:30:46;35.28;;;23.20;;
27412;SDS011;14871;52.702;5.230;2023-04-06T08:33:12;31.70;;;22.23;;
27412;SDS011;14871;52.702;5.230;2023-04-06T08:35:38;34.85;;;24.15;;
27412;SDS011;14871;52.702;5.230;2023-04-06T08:38:04;32.83;;;22.40;;
27412;SDS011;14871;52.702;5.230;2023-04-06T08:40:35;33.95;;;23.85;;
27412;SDS011;14871;52.702;5.230;2023-04-06T08:43:06;31.45;;;22.33;;
27412;SDS011;14871;52.702;5.230;2023-04-06T08:45:35;29.35;;;20.95;;
27412;SDS011;14871;52.702;5.230;2023-04-06T08:48:00;36.25;;;24.25;;
27412;SDS011;14871;52.702;5.230;2023-04-06T08:50:29;35.83;;;23.80;;
27412;SDS011;14871;52.702;5.230;2023-04-06T08:52:55;33.42;;;23.73;;
27412;SDS011;14871;52.702;5.230;2023-04-06T08:55:22;35.13;;;22.60;;
27412;SDS011;14871;52.702;5.230;2023-04-06T08:57:47;32.58;;;22.73;;
27412;SDS011;14871;52.702;5.230;2023-04-06T09:00:14;37.00;;;23.80;;
27412;SDS011;14871;52.702;5.230;2023-04-06T09:02:42;35.05;;;23.65;;
27412;SDS011;14871;52.702;5.230;2023-04-06T09:05:10;34.60;;;22.90;;
27412;SDS011;14871;52.702;5.230;2023-04-06T09:07:36;34.22;;;23.45;;
27412;SDS011;14871;52.702;5.230;2023-04-06T09:10:05;38.40;;;24.25;;
27412;SDS011;14871;52.702;5.230;2023-04-06T09:12:32;37.47;;;23.67;;
27412;SDS011;14871;52.702;5.230;2023-04-06T09:14:58;39.38;;;25.05;;
27412;SDS011;14871;52.702;5.230;2023-04-06T09:17:25;37.72;;;25.55;;
27412;SDS011;14871;52.702;5.230;2023-04-06T09:19:55;37.20;;;25.55;;
27412;SDS011;14871;52.702;5.230;2023-04-06T09:22:21;37.35;;;26.63;;
27412;SDS011;14871;52.702;5.230;2023-04-06T09:24:50;38.38;;;26.40;;
27412;SDS011;14871;52.702;5.230;2023-04-06T09:27:17;37.63;;;26.00;;
27412;SDS011;14871;52.702;5.230;2023-04-06T09:29:43;33.47;;;23.60;;
27412;SDS011;14871;52.702;5.230;2023-04-06T09:32:10;35.08;;;25.45;;
27412;SDS011;14871;52.702;5.230;2023-04-06T09:34:39;35.88;;;25.15;;
27412;SDS011;14871;52.702;5.230;2023-04-06T09:37:18;35.67;;;25.42;;
27412;SDS011;14871;52.702;5.230;2023-04-06T09:39:44;35.88;;;24.77;;
27412;SDS011;14871;52.702;5.230;2023-04-06T09:42:23;33.55;;;23.63;;
27412;SDS011;14871;52.702;5.230;2023-04-06T09:44:50;37.50;;;24.70;;
27412;SDS011;14871;52.702;5.230;2023-04-06T09:47:16;35.95;;;24.20;;
27412;SDS011;14871;52.702;5.230;2023-04-06T09:49:42;33.95;;;22.85;;
27412;SDS011;14871;52.702;5.230;2023-04-06T09:52:10;37.38;;;23.95;;
27412;SDS011;14871;52.702;5.230;2023-04-06T09:54:37;35.60;;;24.48;;
27412;SDS011;14871;52.702;5.230;2023-04-06T10:00:04;33.58;;;24.95;;
27412;SDS011;14871;52.702;5.230;2023-04-06T10:05:37;32.88;;;23.83;;
27412;SDS011;14871;52.702;5.230;2023-04-06T10:08:09;32.85;;;23.58;;
27412;SDS011;14871;52.702;5.230;2023-04-06T10:10:36;36.38;;;24.27;;
27412;SDS011;14871;52.702;5.230;2023-04-06T10:13:02;35.78;;;24.13;;
27412;SDS011;14871;52.702;5.230;2023-04-06T10:15:29;34.45;;;25.58;;
27412;SDS011;14871;52.702;5.230;2023-04-06T10:17:56;37.17;;;26.35;;
27412;SDS011;14871;52.702;5.230;2023-04-06T10:23:12;32.17;;;23.85;;
27412;SDS011;14871;52.702;5.230;2023-04-06T10:25:51;34.90;;;24.67;;
27412;SDS011;14871;52.702;5.230;2023-04-06T10:28:21;34.83;;;25.27;;
27412;SDS011;14871;52.702;5.230;2023-04-06T10:30:48;38.65;;;24.42;;
27412;SDS011;14871;52.702;5.230;2023-04-06T10:33:18;37.40;;;25.52;;
27412;SDS011;14871;52.702;5.230;2023-04-06T10:35:44;39.80;;;24.77;;
27412;SDS011;14871;52.702;5.230;2023-04-06T10:38:11;33.92;;;24.30;;
27412;SDS011;14871;52.702;5.230;2023-04-06T10:40:39;35.03;;;24.70;;
27412;SDS011;14871;52.702;5.230;2023-04-06T10:43:18;33.60;;;23.40;;
27412;SDS011;14871;52.702;5.230;2023-04-06T10:45:45;34.17;;;21.65;;
27412;SDS011;14871;52.702;5.230;2023-04-06T10:50:48;34.38;;;24.02;;
27412;SDS011;14871;52.702;5.230;2023-04-06T10:55:49;31.50;;;22.17;;
27412;SDS011;14871;52.702;5.230;2023-04-06T10:58:19;35.30;;;22.10;;
27412;SDS011;14871;52.702;5.230;2023-04-06T11:00:45;32.00;;;20.08;;
27412;SDS011;14871;52.702;5.230;2023-04-06T11:03:13;32.55;;;22.08;;
27412;SDS011;14871;52.702;5.230;2023-04-06T11:05:43;27.88;;;19.83;;
27412;SDS011;14871;52.702;5.230;2023-04-06T11:08:09;30.10;;;20.73;;
27412;SDS011;14871;52.702;5.230;2023-04-06T11:10:35;32.75;;;20.77;;
27412;SDS011;14871;52.702;5.230;2023-04-06T11:13:01;29.58;;;20.77;;
27412;SDS011;14871;52.702;5.230;2023-04-06T11:15:33;27.15;;;18.73;;
27412;SDS011;14871;52.702;5.230;2023-04-06T11:18:03;24.83;;;18.75;;
27412;SDS011;14871;52.702;5.230;2023-04-06T11:20:29;28.27;;;17.60;;
27412;SDS011;14871;52.702;5.230;2023-04-06T11:22:55;26.38;;;17.23;;
27412;SDS011;14871;52.702;5.230;2023-04-06T11:25:23;27.63;;;15.65;;
27412;SDS011;14871;52.702;5.230;2023-04-06T11:27:49;23.75;;;17.50;;
27412;SDS011;14871;52.702;5.230;2023-04-06T11:30:16;24.98;;;16.83;;
27412;SDS011;14871;52.702;5.230;2023-04-06T11:32:42;23.55;;;16.42;;
27412;SDS011;14871;52.702;5.230;2023-04-06T11:35:27;22.05;;;13.95;;
27412;SDS011;14871;52.702;5.230;2023-04-06T11:37:57;20.70;;;14.00;;
27412;SDS011;14871;52.702;5.230;2023-04-06T11:40:23;20.23;;;12.43;;
27412;SDS011;14871;52.702;5.230;2023-04-06T11:42:53;18.13;;;12.27;;
27412;SDS011;14871;52.702;5.230;2023-04-06T11:45:21;14.93;;;11.35;;
27412;SDS011;14871;52.702;5.230;2023-04-06T11:47:55;14.65;;;10.23;;
27412;SDS011;14871;52.702;5.230;2023-04-06T11:50:22;14.48;;;9.85;;
27412;SDS011;14871;52.702;5.230;2023-04-06T11:52:57;13.40;;;9.30;;
27412;SDS011;14871;52.702;5.230;2023-04-06T11:55:27;10.38;;;6.53;;
27412;SDS011;14871;52.702;5.230;2023-04-06T11:57:53;9.15;;;6.57;;
27412;SDS011;14871;52.702;5.230;2023-04-06T12:00:20;9.43;;;5.72;;
27412;SDS011;14871;52.702;5.230;2023-04-06T12:02:47;7.40;;;5.07;;
27412;SDS011;14871;52.702;5.230;2023-04-06T12:05:13;4.90;;;3.55;;
27412;SDS011;14871;52.702;5.230;2023-04-06T12:07:39;3.78;;;2.33;;
27412;SDS011;14871;52.702;5.230;2023-04-06T12:10:05;4.50;;;2.53;;
27412;SDS011;14871;52.702;5.230;2023-04-06T12:12:31;2.72;;;2.22;;
27412;SDS011;14871;52.702;5.230;2023-04-06T12:14:57;4.70;;;2.80;;
27412;SDS011;14871;52.702;5.230;2023-04-06T12:17:23;4.95;;;2.88;;
27412;SDS011;14871;52.702;5.230;2023-04-06T12:19:50;4.03;;;3.28;;
27412;SDS011;14871;52.702;5.230;2023-04-06T12:22:15;5.18;;;3.33;;
27412;SDS011;14871;52.702;5.230;2023-04-06T12:24:42;3.88;;;3.10;;
27412;SDS011;14871;52.702;5.230;2023-04-06T12:27:08;4.50;;;3.28;;
27412;SDS011;14871;52.702;5.230;2023-04-06T12:29:36;5.22;;;3.70;;
27412;SDS011;14871;52.702;5.230;2023-04-06T12:32:02;4.50;;;3.80;;
27412;SDS011;14871;52.702;5.230;2023-04-06T12:34:28;5.80;;;3.90;;
27412;SDS011;14871;52.702;5.230;2023-04-06T12:36:54;4.82;;;4.05;;
27412;SDS011;14871;52.702;5.230;2023-04-06T12:39:21;5.38;;;4.20;;
27412;SDS011;14871;52.702;5.230;2023-04-06T12:41:47;5.03;;;4.35;;
27412;SDS011;14871;52.702;5.230;2023-04-06T12:44:13;6.47;;;4.45;;
27412;SDS011;14871;52.702;5.230;2023-04-06T12:46:39;7.47;;;5.22;;
27412;SDS011;14871;52.702;5.230;2023-04-06T12:49:05;6.72;;;4.13;;
27412;SDS011;14871;52.702;5.230;2023-04-06T12:51:31;7.43;;;4.80;;
27412;SDS011;14871;52.702;5.230;2023-04-06T12:53:57;11.65;;;8.43;;
27412;SDS011;14871;52.702;5.230;2023-04-06T12:56:23;9.57;;;5.70;;
27412;SDS011;14871;52.702;5.230;2023-04-06T12:58:50;7.20;;;6.25;;
27412;SDS011;14871;52.702;5.230;2023-04-06T13:01:16;7.70;;;5.72;;
27412;SDS011;14871;52.702;5.230;2023-04-06T13:03:42;8.90;;;6.63;;
27412;SDS011;14871;52.702;5.230;2023-04-06T13:06:08;8.38;;;6.18;;
27412;SDS011;14871;52.702;5.230;2023-04-06T13:08:35;8.95;;;6.72;;
27412;SDS011;14871;52.702;5.230;2023-04-06T13:11:03;9.57;;;7.90;;
27412;SDS011;14871;52.702;5.230;2023-04-06T13:13:29;17.23;;;12.27;;
27412;SDS011;14871;52.702;5.230;2023-04-06T13:16:03;12.82;;;8.57;;
27412;SDS011;14871;52.702;5.230;2023-04-06T13:18:30;13.27;;;8.52;;
27412;SDS011;14871;52.702;5.230;2023-04-06T13:20:57;11.45;;;7.90;;
27412;SDS011;14871;52.702;5.230;2023-04-06T13:23:24;13.95;;;8.32;;
27412;SDS011;14871;52.702;5.230;2023-04-06T13:26:23;13.13;;;8.98;;
27412;SDS011;14871;52.702;5.230;2023-04-06T13:28:42;10.75;;;8.70;;
27412;SDS011;14871;52.702;5.230;2023-04-06T13:31:08;10.88;;;8.05;;
27412;SDS011;14871;52.702;5.230;2023-04-06T13:33:34;11.80;;;9.05;;
27412;SDS011;14871;52.702;5.230;2023-04-06T13:36:00;11.95;;;9.13;;
27412;SDS011;14871;52.702;5.230;2023-04-06T13:38:27;13.27;;;9.73;;
27412;SDS011;14871;52.702;5.230;2023-04-06T13:40:52;17.23;;;10.50;;
27412;SDS011;14871;52.702;5.230;2023-04-06T13:43:18;12.98;;;9.60;;
27412;SDS011;14871;52.702;5.230;2023-04-06T13:45:52;15.38;;;11.00;;
27412;SDS011;14871;52.702;5.230;2023-04-06T13:48:23;14.27;;;10.70;;
27412;SDS011;14871;52.702;5.230;2023-04-06T13:50:49;14.95;;;10.63;;
27412;SDS011;14871;52.702;5.230;2023-04-06T13:53:15;15.40;;;11.23;;
27412;SDS011;14871;52.702;5.230;2023-04-06T13:55:40;15.15;;;11.00;;
27412;SDS011;14871;52.702;5.230;2023-04-06T13:58:06;14.75;;;11.25;;
27412;SDS011;14871;52.702;5.230;2023-04-06T14:00:32;16.17;;;11.70;;
27412;SDS011;14871;52.702;5.230;2023-04-06T14:02:58;15.05;;;12.05;;
27412;SDS011;14871;52.702;5.230;2023-04-06T14:05:23;17.92;;;13.05;;
27412;SDS011;14871;52.702;5.230;2023-04-06T14:07:49;17.73;;;12.52;;
27412;SDS011;14871;52.702;5.230;2023-04-06T14:10:15;20.60;;;13.65;;
27412;SDS011;14871;52.702;5.230;2023-04-06T14:12:42;16.35;;;11.60;;
27412;SDS011;14871;52.702;5.230;2023-04-06T14:15:11;19.85;;;13.65;;
27412;SDS011;14871;52.702;5.230;2023-04-06T14:17:37;18.48;;;12.95;;
27412;SDS011;14871;52.702;5.230;2023-04-06T14:20:05;18.83;;;13.70;;
27412;SDS011;14871;52.702;5.230;2023-04-06T14:22:31;20.42;;;14.50;;
27412;SDS011;14871;52.702;5.230;2023-04-06T14:24:56;22.70;;;14.90;;
27412;SDS011;14871;52.702;5.230;2023-04-06T14:27:22;18.20;;;14.05;;
27412;SDS011;14871;52.702;5.230;2023-04-06T14:29:49;22.33;;;14.90;;
27412;SDS011;14871;52.702;5.230;2023-04-06T14:32:15;18.00;;;12.35;;
27412;SDS011;14871;52.702;5.230;2023-04-06T14:34:41;17.10;;;13.32;;
27412;SDS011;14871;52.702;5.230;2023-04-06T14:37:07;17.20;;;14.45;;
27412;SDS011;14871;52.702;5.230;2023-04-06T14:39:33;15.70;;;12.60;;